ESUJ weather

Tälje Airport
Ånge, Västernorrlands län, Sweden

Public forecast

Using degrees Celsius for public forecast. Weather courtesy of forecast.io.

METAR (pilot weather report)

Closest report is Sundsvall-Härnösand Airport, 44.6 nm (82.6 km) E. Retrieved 2019/08/24 21:20 UTC (0 seconds ago):

ESNN 242120Z 03002KT CAVOK 13/10 Q1024

TAF (pilot weather forecast)

Forecast is more than 12 hours old.

Closest forecast is Sundsvall-Härnösand Airport, 44.6 nm (82.6 km) E. Retrieved 2016/05/29 09:33 UTC (3 years ago):

TAF TAF ESNN 290830Z 2909/3018 07006KT 9999 SCT045 BECMG 2913/2915 14010KT